createdAt,value
2023-02-07T00:01:12.881Z,91.42
2023-02-07T00:03:40.948Z,91.68
2023-02-07T00:06:12.809Z,91.34
2023-02-07T00:08:41.523Z,91.80
2023-02-07T00:11:11.608Z,91.69
2023-02-07T00:13:39.600Z,91.78
2023-02-07T00:16:08.359Z,91.61
2023-02-07T00:18:36.983Z,91.60
2023-02-07T00:21:07.461Z,91.45
2023-02-07T00:23:37.521Z,91.06
2023-02-07T00:26:06.324Z,91.33
2023-02-07T00:28:34.521Z,91.18
2023-02-07T00:31:05.389Z,91.13
2023-02-07T00:33:33.275Z,91.46
2023-02-07T00:36:02.160Z,91.03
2023-02-07T00:38:31.417Z,91.09
2023-02-07T00:41:01.470Z,90.98
2023-02-07T00:43:30.986Z,90.90
2023-02-07T00:45:59.491Z,90.80
2023-02-07T00:48:27.521Z,90.89
2023-02-07T00:50:55.367Z,90.98
2023-02-07T00:53:23.470Z,91.54
2023-02-07T00:55:51.452Z,91.71
2023-02-07T00:58:20.636Z,91.57
2023-02-07T01:00:49.109Z,91.40
2023-02-07T01:03:16.963Z,91.66
2023-02-07T01:05:44.753Z,91.86
2023-02-07T01:08:13.209Z,91.83
2023-02-07T01:10:42.261Z,91.96
2023-02-07T01:13:11.333Z,91.74
2023-02-07T01:15:42.449Z,91.37
2023-02-07T01:18:10.406Z,91.44
2023-02-07T01:20:38.603Z,91.60
2023-02-07T01:23:06.686Z,91.67
2023-02-07T01:25:34.507Z,91.42
2023-02-07T01:28:02.366Z,91.44
2023-02-07T01:30:30.168Z,91.36
2023-02-07T01:32:59.301Z,91.04
2023-02-07T01:35:27.007Z,90.69
2023-02-07T01:37:55.084Z,91.01
2023-02-07T01:40:23.002Z,91.32
2023-02-07T01:42:50.808Z,91.09
2023-02-07T01:45:29.664Z,91.16
2023-02-07T01:48:03.155Z,90.97
2023-02-07T01:50:32.710Z,91.29
2023-02-07T01:53:03.466Z,91.24
2023-02-07T01:55:36.061Z,91.93
2023-02-07T01:58:06.342Z,91.84
2023-02-07T02:00:34.545Z,91.78
2023-02-07T02:03:05.767Z,91.31
2023-02-07T02:05:36.210Z,91.37
2023-02-07T02:08:04.577Z,91.28
2023-02-07T02:10:49.625Z,91.26
2023-02-07T02:13:26.975Z,90.88
2023-02-07T02:16:03.251Z,91.06
2023-02-07T02:18:52.228Z,90.57
2023-02-07T02:21:54.576Z,90.65
2023-02-07T02:24:46.860Z,90.45
2023-02-07T02:27:25.205Z,91.01
2023-02-07T02:30:19.371Z,90.86
2023-02-07T02:33:26.840Z,90.87
2023-02-07T02:36:02.875Z,90.82
2023-02-07T02:38:36.063Z,90.51
2023-02-07T02:41:07.483Z,90.92
2023-02-07T02:43:41.934Z,90.84
2023-02-07T02:46:15.162Z,90.73
2023-02-07T02:48:45.801Z,90.30
2023-02-07T02:51:14.369Z,90.33
2023-02-07T02:53:52.625Z,90.78
2023-02-07T02:56:55.600Z,90.30
2023-02-07T02:59:40.252Z,90.59
2023-02-07T03:02:18.780Z,90.59
2023-02-07T03:05:11.300Z,90.80
2023-02-07T03:07:56.085Z,90.82
2023-02-07T03:10:32.293Z,90.69
2023-02-07T03:13:09.788Z,90.51
2023-02-07T03:15:48.695Z,90.33
2023-02-07T03:18:25.896Z,90.58
2023-02-07T03:21:01.483Z,90.71
2023-02-07T03:23:30.730Z,90.43
2023-02-07T03:26:01.621Z,90.02
2023-02-07T03:28:32.516Z,90.54
2023-02-07T03:31:03.942Z,90.49
2023-02-07T03:33:32.474Z,90.19
2023-02-07T03:36:10.597Z,90.29
2023-02-07T03:38:39.630Z,90.26
2023-02-07T03:41:12.427Z,90.75
2023-02-07T03:43:42.121Z,90.46
2023-02-07T03:46:10.792Z,90.52
2023-02-07T03:48:38.609Z,90.25
2023-02-07T03:51:08.008Z,90.58
2023-02-07T03:53:35.729Z,90.68
2023-02-07T03:56:03.439Z,91.01
2023-02-07T03:58:31.124Z,90.82
2023-02-07T04:00:58.936Z,91.06
2023-02-07T04:03:26.809Z,90.93
2023-02-07T04:05:54.584Z,90.84
2023-02-07T04:08:23.744Z,90.80
2023-02-07T04:10:58.502Z,90.65
2023-02-07T04:13:26.471Z,90.44
2023-02-07T04:15:54.310Z,90.74
2023-02-07T04:18:22.130Z,90.18
2023-02-07T04:20:49.868Z,90.51
2023-02-07T04:23:17.736Z,90.51
2023-02-07T04:25:46.864Z,89.88
2023-02-07T04:28:15.672Z,90.15
2023-02-07T04:30:43.446Z,90.40
2023-02-07T04:33:11.147Z,90.35
2023-02-07T04:35:39.074Z,90.72
2023-02-07T04:38:07.040Z,90.73
2023-02-07T04:40:34.996Z,90.84
2023-02-07T04:43:04.130Z,90.80
2023-02-07T04:45:31.917Z,90.48
2023-02-07T04:47:59.649Z,90.38
2023-02-07T04:50:27.368Z,90.55
2023-02-07T04:52:55.129Z,90.51
2023-02-07T04:55:23.488Z,90.28
2023-02-07T04:57:51.341Z,90.37
2023-02-07T05:00:20.896Z,90.06
2023-02-07T05:02:48.580Z,89.88
2023-02-07T05:05:16.562Z,89.73
2023-02-07T05:07:44.391Z,90.20
2023-02-07T05:10:12.149Z,90.22
2023-02-07T05:12:39.928Z,89.64
2023-02-07T05:15:08.074Z,90.03
2023-02-07T05:17:38.564Z,89.74
2023-02-07T05:20:07.399Z,90.15
2023-02-07T05:22:35.200Z,90.32
2023-02-07T05:25:02.982Z,90.07
2023-02-07T05:27:30.756Z,90.33
2023-02-07T05:29:59.369Z,90.43
2023-02-07T05:32:44.863Z,90.09
2023-02-07T05:35:13.987Z,90.02
2023-02-07T05:37:41.737Z,90.24
2023-02-07T05:40:10.447Z,89.73
2023-02-07T05:42:38.172Z,89.59
2023-02-07T05:45:07.247Z,89.34
2023-02-07T05:47:34.979Z,89.55
2023-02-07T05:50:02.804Z,89.12
2023-02-07T05:52:34.031Z,88.94
2023-02-07T05:55:03.163Z,88.94
2023-02-07T05:57:31.334Z,89.07
2023-02-07T05:59:59.132Z,89.31
2023-02-07T06:02:27.305Z,89.69
2023-02-07T06:04:55.108Z,89.67
2023-02-07T06:07:23.810Z,89.62
2023-02-07T06:09:53.066Z,89.73
2023-02-07T06:12:20.807Z,89.65
2023-02-07T06:14:48.531Z,89.76
2023-02-07T06:17:16.245Z,90.24
2023-02-07T06:19:44.039Z,89.93
2023-02-07T06:22:11.916Z,89.66
2023-02-07T06:24:39.695Z,90.04
2023-02-07T06:27:08.873Z,89.89
2023-02-07T06:29:36.675Z,89.89
2023-02-07T06:32:06.140Z,89.66
2023-02-07T06:34:33.867Z,89.43
2023-02-07T06:37:01.681Z,89.77
2023-02-07T06:39:29.408Z,89.21
2023-02-07T06:41:57.140Z,89.18
2023-02-07T06:44:26.216Z,89.20
2023-02-07T06:46:54.016Z,88.94
2023-02-07T06:49:21.740Z,89.05
2023-02-07T06:51:49.427Z,89.43
2023-02-07T06:54:17.182Z,89.09
2023-02-07T06:56:44.938Z,89.31
2023-02-07T06:59:12.619Z,89.13
2023-02-07T07:01:42.087Z,88.81
2023-02-07T07:04:10.173Z,88.89
2023-02-07T07:06:38.015Z,89.26
2023-02-07T07:09:06.492Z,89.26
2023-02-07T07:11:34.238Z,89.07
2023-02-07T07:14:02.664Z,89.28
2023-02-07T07:16:30.339Z,89.00
2023-02-07T07:18:59.404Z,89.17
2023-02-07T07:21:28.011Z,89.35
2023-02-07T07:23:56.513Z,89.06
2023-02-07T07:26:24.169Z,88.92
2023-02-07T07:28:51.921Z,88.86
2023-02-07T07:31:19.654Z,88.47
2023-02-07T07:33:47.335Z,88.59
2023-02-07T07:36:16.403Z,88.01
2023-02-07T07:38:46.096Z,88.39
2023-02-07T07:41:15.622Z,88.57
2023-02-07T07:43:43.312Z,88.71
2023-02-07T07:46:11.241Z,88.62
2023-02-07T07:48:39.045Z,88.85
2023-02-07T07:51:07.134Z,88.72
2023-02-07T07:53:36.174Z,88.48
2023-02-07T07:56:04.500Z,88.71
2023-02-07T07:58:32.488Z,88.36
2023-02-07T08:01:00.250Z,88.29
2023-02-07T08:03:28.180Z,88.63
2023-02-07T08:05:55.969Z,89.13
2023-02-07T08:08:23.693Z,88.74
2023-02-07T08:10:52.952Z,88.98
2023-02-07T08:13:21.462Z,88.68
2023-02-07T08:15:49.224Z,88.94
2023-02-07T08:18:16.975Z,89.41
2023-02-07T08:20:44.657Z,88.94
2023-02-07T08:23:12.548Z,88.79
2023-02-07T08:25:40.279Z,89.16
2023-02-07T08:28:09.673Z,88.62
2023-02-07T08:30:37.975Z,88.98
2023-02-07T08:33:05.922Z,88.99
2023-02-07T08:35:33.691Z,89.01
2023-02-07T08:38:01.390Z,89.26
2023-02-07T08:40:29.825Z,88.82
2023-02-07T08:42:57.609Z,88.90
2023-02-07T08:45:26.842Z,89.41
2023-02-07T08:47:54.618Z,89.62
2023-02-07T08:50:22.518Z,88.86
2023-02-07T08:52:50.287Z,89.19
2023-02-07T08:55:18.049Z,89.01
2023-02-07T08:57:45.788Z,88.88
2023-02-07T09:00:14.396Z,89.40
2023-02-07T09:02:43.794Z,89.21
2023-02-07T09:05:12.033Z,89.24
2023-02-07T09:07:39.922Z,89.27
2023-02-07T09:10:10.654Z,89.43
2023-02-07T09:12:38.765Z,89.37
2023-02-07T09:15:07.265Z,89.09
2023-02-07T09:17:35.050Z,88.88
2023-02-07T09:20:04.717Z,88.78
2023-02-07T09:22:33.086Z,88.83
2023-02-07T09:25:00.841Z,88.39
2023-02-07T09:27:28.557Z,87.78
2023-02-07T09:29:56.375Z,87.76
2023-02-07T09:32:24.060Z,87.59
2023-02-07T09:34:52.339Z,87.37
2023-02-07T09:37:21.423Z,87.54
2023-02-07T09:39:49.270Z,87.06
2023-02-07T09:42:28.969Z,86.31
2023-02-07T09:45:02.170Z,86.13
2023-02-07T09:47:32.534Z,85.92
2023-02-07T09:50:03.743Z,86.27
2023-02-07T09:52:39.212Z,86.14
2023-02-07T09:55:16.271Z,86.05
2023-02-07T09:57:48.472Z,85.55
2023-02-07T10:00:23.274Z,84.57
2023-02-07T10:02:58.028Z,84.55
2023-02-07T10:05:30.780Z,84.45
2023-02-07T10:07:59.879Z,84.20
2023-02-07T10:10:35.705Z,84.58
2023-02-07T10:13:17.283Z,83.94
2023-02-07T10:15:58.002Z,83.74
2023-02-07T10:18:45.096Z,83.80
2023-02-07T10:21:21.364Z,83.85
2023-02-07T10:24:06.270Z,83.51
2023-02-07T10:26:38.611Z,83.05
2023-02-07T10:29:19.298Z,82.69
2023-02-07T10:31:52.093Z,83.05
2023-02-07T10:34:23.191Z,82.74
2023-02-07T10:36:53.266Z,82.67
2023-02-07T10:39:29.241Z,82.63
2023-02-07T10:41:57.699Z,82.43
2023-02-07T10:44:28.604Z,81.98
2023-02-07T10:47:00.932Z,82.78
2023-02-07T10:49:31.392Z,82.11
2023-02-07T10:52:02.629Z,81.04
2023-02-07T10:54:51.218Z,80.99
2023-02-07T10:57:20.814Z,81.28
2023-02-07T10:59:50.375Z,80.82
2023-02-07T11:02:39.604Z,81.43
2023-02-07T11:05:29.203Z,78.80
2023-02-07T11:07:59.289Z,79.48
2023-02-07T11:10:32.177Z,79.68
2023-02-07T11:13:01.727Z,78.48
2023-02-07T11:15:37.329Z,78.55
2023-02-07T11:18:06.452Z,77.87
2023-02-07T11:20:37.702Z,77.42
2023-02-07T11:23:09.170Z,78.21
2023-02-07T11:25:41.022Z,77.84
2023-02-07T11:28:17.225Z,77.00
2023-02-07T11:30:45.340Z,76.32
2023-02-07T11:33:20.166Z,76.61
2023-02-07T11:36:12.287Z,75.42
2023-02-07T11:38:43.009Z,76.39
2023-02-07T11:41:24.559Z,75.88
2023-02-07T11:43:57.463Z,76.32
2023-02-07T11:46:38.323Z,74.26
2023-02-07T11:49:11.301Z,72.04
2023-02-07T11:51:39.043Z,72.25
2023-02-07T11:54:08.332Z,73.05
2023-02-07T11:56:41.374Z,73.11
2023-02-07T11:59:16.257Z,71.32
2023-02-07T12:01:45.745Z,72.28
2023-02-07T12:04:18.462Z,70.46
2023-02-07T12:06:53.495Z,66.94
2023-02-07T12:09:34.925Z,68.37
2023-02-07T12:12:08.738Z,69.03
2023-02-07T12:14:40.204Z,69.64
2023-02-07T12:17:15.681Z,69.81
2023-02-07T12:19:53.084Z,67.05
2023-02-07T12:22:24.662Z,67.36
2023-02-07T12:24:57.751Z,65.42
2023-02-07T12:27:33.009Z,63.04
2023-02-07T12:30:05.791Z,64.48
2023-02-07T12:32:43.472Z,65.79
2023-02-07T12:35:18.256Z,63.22
2023-02-07T12:37:51.909Z,62.37
2023-02-07T12:40:29.212Z,64.34
2023-02-07T12:43:03.614Z,65.40
2023-02-07T12:45:51.410Z,63.04
2023-02-07T12:48:32.646Z,62.50
2023-02-07T12:51:12.806Z,61.12
2023-02-07T12:53:56.362Z,59.07
2023-02-07T12:56:37.684Z,60.12
2023-02-07T12:59:15.137Z,58.87
2023-02-07T13:01:47.483Z,60.69
2023-02-07T13:05:02.929Z,58.12
2023-02-07T13:07:48.407Z,64.96
2023-02-07T13:10:36.406Z,66.01
2023-02-07T13:13:13.864Z,66.13
2023-02-07T13:15:52.115Z,64.93
2023-02-07T13:18:26.931Z,66.94
2023-02-07T13:21:02.333Z,66.64
2023-02-07T13:23:33.779Z,66.11
2023-02-07T13:26:06.754Z,65.80
2023-02-07T13:28:43.274Z,66.48
2023-02-07T13:31:17.065Z,65.53
2023-02-07T13:33:45.885Z,65.93
2023-02-07T13:36:20.531Z,66.06
2023-02-07T13:39:00.840Z,65.16
2023-02-07T13:41:36.465Z,66.27
2023-02-07T13:44:10.564Z,63.84
2023-02-07T13:46:56.264Z,64.52
2023-02-07T13:49:37.230Z,64.79
2023-02-07T13:52:11.665Z,65.99
2023-02-07T13:54:45.877Z,65.38
2023-02-07T13:57:39.426Z,65.65
2023-02-07T14:00:17.668Z,65.83
2023-02-07T14:02:52.520Z,65.63
2023-02-07T14:05:23.921Z,66.31
2023-02-07T14:07:57.669Z,66.18
2023-02-07T14:10:45.838Z,65.68
2023-02-07T14:13:32.643Z,65.51
2023-02-07T14:16:07.276Z,66.33
2023-02-07T14:18:42.302Z,66.57
2023-02-07T14:21:38.663Z,66.16
2023-02-07T14:24:20.740Z,66.09
2023-02-07T14:27:26.143Z,66.87
2023-02-07T14:29:56.412Z,66.47
2023-02-07T14:32:32.802Z,67.22
2023-02-07T14:35:07.578Z,67.04
2023-02-07T14:37:46.306Z,66.86
2023-02-07T14:40:21.319Z,67.31
2023-02-07T14:43:01.598Z,66.83
2023-02-07T14:45:31.734Z,67.55
2023-02-07T14:47:59.774Z,68.23
2023-02-07T14:50:33.436Z,67.92
2023-02-07T14:53:04.405Z,67.97
2023-02-07T14:55:35.973Z,68.44
2023-02-07T14:58:08.429Z,67.90
2023-02-07T15:00:41.036Z,67.89
2023-02-07T15:03:13.639Z,67.90
2023-02-07T15:05:51.165Z,67.43
2023-02-07T15:08:21.624Z,67.51
2023-02-07T15:10:55.937Z,68.08
2023-02-07T15:13:27.800Z,68.04
2023-02-07T15:15:59.635Z,68.66
2023-02-07T15:18:31.597Z,68.49
2023-02-07T15:21:01.293Z,68.60
2023-02-07T15:23:31.646Z,68.43
2023-02-07T15:26:02.836Z,68.88
2023-02-07T15:28:32.887Z,69.48
2023-02-07T15:31:04.756Z,69.48
2023-02-07T15:33:36.809Z,69.94
2023-02-07T15:36:26.634Z,69.50
2023-02-07T15:38:54.893Z,69.61
2023-02-07T15:41:22.666Z,69.92
2023-02-07T15:43:57.970Z,69.91
2023-02-07T15:46:25.991Z,70.76
2023-02-07T15:48:55.547Z,70.40
2023-02-07T15:51:27.858Z,70.36
2023-02-07T15:53:59.672Z,70.48
2023-02-07T15:56:30.546Z,70.96
2023-02-07T15:59:03.061Z,70.87
2023-02-07T16:01:31.781Z,71.30
2023-02-07T16:03:59.971Z,71.24
2023-02-07T16:06:30.904Z,71.17
2023-02-07T16:09:00.928Z,71.20
2023-02-07T16:11:38.212Z,71.21
2023-02-07T16:14:23.088Z,71.31
2023-02-07T16:16:53.154Z,71.80
2023-02-07T16:19:26.078Z,71.82
2023-02-07T16:22:03.057Z,72.18
2023-02-07T16:24:33.972Z,72.78
2023-02-07T16:27:02.232Z,72.51
2023-02-07T16:29:29.929Z,73.16
2023-02-07T16:31:58.009Z,73.30
2023-02-07T16:34:25.814Z,73.26
2023-02-07T16:36:56.247Z,73.68
2023-02-07T16:39:24.256Z,74.06
2023-02-07T16:41:55.766Z,73.91
2023-02-07T16:44:25.360Z,74.68
2023-02-07T16:46:53.386Z,74.89
2023-02-07T16:49:22.411Z,74.97
2023-02-07T16:51:50.106Z,75.27
2023-02-07T16:54:19.126Z,75.82
2023-02-07T16:56:49.917Z,75.89
2023-02-07T16:59:19.435Z,76.41
2023-02-07T17:01:47.788Z,76.76
2023-02-07T17:04:15.916Z,77.04
2023-02-07T17:06:45.222Z,77.58
2023-02-07T17:09:15.731Z,77.91
2023-02-07T17:11:45.312Z,78.72
2023-02-07T17:14:13.088Z,78.67
2023-02-07T17:16:41.015Z,78.62
2023-02-07T17:19:13.044Z,78.71
2023-02-07T17:21:41.931Z,79.28
2023-02-07T17:24:09.961Z,79.60
2023-02-07T17:26:38.680Z,80.43
2023-02-07T17:29:08.088Z,80.28
2023-02-07T17:31:35.765Z,80.28
2023-02-07T17:34:03.499Z,80.78
2023-02-07T17:36:31.271Z,80.33
2023-02-07T17:39:00.108Z,80.29
2023-02-07T17:41:27.982Z,80.98
2023-02-07T17:43:55.715Z,81.72
2023-02-07T17:46:26.748Z,82.38
2023-02-07T17:48:55.671Z,82.66
2023-02-07T17:51:26.042Z,83.21
2023-02-07T17:53:54.374Z,83.19
2023-02-07T17:56:25.213Z,82.03
2023-02-07T17:58:54.137Z,82.84
2023-02-07T18:01:21.985Z,82.71
2023-02-07T18:03:53.447Z,83.39
2023-02-07T18:06:23.901Z,83.55
2023-02-07T18:08:51.647Z,83.36
2023-02-07T18:11:20.074Z,83.78
2023-02-07T18:13:48.990Z,83.75
2023-02-07T18:16:18.967Z,83.50
2023-02-07T18:18:46.797Z,83.81
2023-02-07T18:21:15.995Z,83.47
2023-02-07T18:23:43.847Z,83.82
2023-02-07T18:26:12.608Z,84.57
2023-02-07T18:28:40.330Z,84.60
2023-02-07T18:31:12.032Z,84.92
2023-02-07T18:33:39.813Z,84.69
2023-02-07T18:36:08.900Z,84.92
2023-02-07T18:38:38.214Z,84.95
2023-02-07T18:41:09.871Z,84.44
2023-02-07T18:43:38.437Z,85.03
2023-02-07T18:46:09.820Z,85.80
2023-02-07T18:48:38.451Z,85.42
2023-02-07T18:51:07.448Z,85.47
2023-02-07T18:53:35.607Z,85.38
2023-02-07T18:56:06.367Z,85.13
2023-02-07T18:58:34.632Z,85.87
2023-02-07T19:01:04.918Z,85.88
2023-02-07T19:03:33.124Z,86.04
2023-02-07T19:06:01.778Z,86.20
2023-02-07T19:08:29.587Z,86.38
2023-02-07T19:10:58.722Z,86.42
2023-02-07T19:13:28.520Z,86.76
2023-02-07T19:16:03.240Z,86.51
2023-02-07T19:18:31.165Z,86.50
2023-02-07T19:21:03.820Z,86.48
2023-02-07T19:23:31.716Z,86.58
2023-02-07T19:25:59.381Z,86.41
2023-02-07T19:28:28.789Z,86.85
2023-02-07T19:30:56.576Z,86.77
2023-02-07T19:33:24.512Z,86.90
2023-02-07T19:35:52.269Z,86.34
2023-02-07T19:38:20.038Z,86.32
2023-02-07T19:40:56.218Z,86.58
2023-02-07T19:43:24.172Z,86.82
2023-02-07T19:45:54.031Z,86.41
2023-02-07T19:48:22.695Z,86.97
2023-02-07T19:50:58.871Z,87.19
2023-02-07T19:53:27.135Z,87.06
2023-02-07T19:55:55.384Z,87.49
2023-02-07T19:58:23.202Z,87.55
2023-02-07T20:00:50.980Z,87.22
2023-02-07T20:03:20.042Z,87.41
2023-02-07T20:05:47.739Z,87.09
2023-02-07T20:08:15.503Z,87.65
2023-02-07T20:10:43.552Z,87.55
2023-02-07T20:13:11.653Z,87.48
2023-02-07T20:15:40.628Z,87.40
2023-02-07T20:18:08.557Z,87.44
2023-02-07T20:20:41.804Z,87.56
2023-02-07T20:23:10.375Z,87.74
2023-02-07T20:25:38.922Z,87.57
2023-02-07T20:28:08.797Z,87.41
2023-02-07T20:30:37.589Z,87.02
2023-02-07T20:33:05.512Z,87.59
2023-02-07T20:35:33.184Z,87.15
2023-02-07T20:38:02.635Z,87.78
2023-02-07T20:40:30.682Z,87.89
2023-02-07T20:42:58.377Z,88.15
2023-02-07T20:45:26.047Z,87.85
2023-02-07T20:47:53.780Z,87.95
2023-02-07T20:50:21.710Z,88.08
2023-02-07T20:52:49.449Z,87.82
2023-02-07T20:55:18.631Z,87.76
2023-02-07T20:57:46.425Z,87.90
2023-02-07T21:00:15.506Z,87.77
2023-02-07T21:02:43.347Z,87.59
2023-02-07T21:05:11.094Z,87.98
2023-02-07T21:07:38.917Z,87.86
2023-02-07T21:10:07.456Z,87.86
2023-02-07T21:12:36.509Z,87.65
2023-02-07T21:15:04.479Z,88.23
2023-02-07T21:17:32.143Z,87.97
2023-02-07T21:19:59.862Z,88.44
2023-02-07T21:22:28.456Z,88.11
2023-02-07T21:24:56.219Z,88.15
2023-02-07T21:27:23.985Z,87.94
2023-02-07T21:29:53.085Z,87.89
2023-02-07T21:32:20.805Z,88.09
2023-02-07T21:34:48.717Z,88.06
2023-02-07T21:37:16.488Z,88.14
2023-02-07T21:39:44.263Z,87.75
2023-02-07T21:42:12.101Z,87.78
2023-02-07T21:44:39.930Z,87.91
2023-02-07T21:47:08.959Z,88.15
2023-02-07T21:49:36.782Z,87.65
2023-02-07T21:52:04.634Z,87.50
2023-02-07T21:54:32.413Z,87.88
2023-02-07T21:57:00.100Z,87.82
2023-02-07T21:59:27.954Z,88.22
2023-02-07T22:01:55.629Z,87.89
2023-02-07T22:04:24.877Z,88.25
2023-02-07T22:06:52.550Z,88.35
2023-02-07T22:09:21.903Z,88.48
2023-02-07T22:11:50.406Z,88.43
2023-02-07T22:14:18.574Z,88.85
2023-02-07T22:16:46.503Z,88.74
2023-02-07T22:19:17.065Z,88.26
2023-02-07T22:21:47.605Z,88.35
2023-02-07T22:24:17.867Z,88.25
2023-02-07T22:26:46.421Z,87.82
2023-02-07T22:29:14.813Z,88.08
2023-02-07T22:31:42.973Z,87.79
2023-02-07T22:34:13.965Z,88.17
2023-02-07T22:36:43.986Z,88.11
2023-02-07T22:39:14.107Z,88.19
2023-02-07T22:41:41.995Z,88.11
2023-02-07T22:44:09.740Z,88.26
2023-02-07T22:46:37.554Z,87.84
2023-02-07T22:49:05.337Z,87.78
2023-02-07T22:51:36.283Z,88.01
2023-02-07T22:54:07.085Z,88.08
2023-02-07T22:56:38.539Z,87.83
2023-02-07T22:59:07.061Z,87.90
2023-02-07T23:01:37.008Z,88.33
2023-02-07T23:04:06.101Z,88.29
2023-02-07T23:06:34.269Z,88.39
2023-02-07T23:09:02.048Z,88.27
2023-02-07T23:11:29.808Z,88.38
2023-02-07T23:13:58.848Z,88.27
2023-02-07T23:16:28.266Z,88.36
2023-02-07T23:18:58.164Z,88.60
2023-02-07T23:21:27.977Z,88.26
2023-02-07T23:23:58.524Z,88.00
2023-02-07T23:26:27.976Z,88.12
2023-02-07T23:28:55.994Z,87.33
2023-02-07T23:31:26.488Z,87.17
2023-02-07T23:33:54.632Z,87.83
2023-02-07T23:36:22.917Z,88.02
2023-02-07T23:38:51.723Z,88.14
2023-02-07T23:41:19.971Z,88.15
2023-02-07T23:43:47.721Z,87.75
2023-02-07T23:46:17.078Z,88.26
2023-02-07T23:48:46.320Z,88.32
2023-02-07T23:51:15.212Z,88.18
2023-02-07T23:53:43.828Z,88.03
2023-02-07T23:56:15.297Z,87.84
2023-02-07T23:58:44.794Z,87.84
